Huvudsida
METAR-TAF:

METAR-TAF

Flygplatser :

Wattay International Airport

Vientiane, Laos

latitud: 17-57N, longitud: 102-34E, höjd: 171 m

Aktuellt väderrapport

Denna rapport gjordes för 4 timmar och 41 minuter sedan, klockan 17:00 UTC
Vind 2 kt från väst/sydväst
Temperatur 27°C
Fuktighet 74%
Tryck 1010 hPa
Sikt: 5000 m
Spridda moln på en höjd av 2000 ft
fuktdis,

METAR: VLVT 251700Z 24002KT 5000 BR SCT020 27/22 Q1010 NOSIG

Tid: 04:41 (21:41 UTC)

Väderprognos

Denna rapport gjordes för 4 timmar och 41 minuter sedan, klockan 17:00 UTC
Prognos gäller från 25 kl. 18 UTC till 26 kl. 18 UTC
Vind 4 kt från syd
Sikt: 8000 m
Spridda moln på en höjd av 2000 ft
Brutna moln på en höjd av 5000 ft

TAF: VLVT 251700Z 2518/2618 18004KT 8000 SCT020 BKN050

Aktuella väderrapporter och prognoser från 4000 flygplatser (METAR- och TAF-rapporter).

De tillgängliga stationerna syns som gula och röda prickar på kartan.

För musen över prickarna för att se namnen på stationerna.

Klicka sedan för att få väderrapporter och prognoser.

För att ändra kartan: Klicka på de gröna knapparna med ett svart kors på för att zooma in; den gröna knappen med ett streck på för att zooma ut; eller på de gröna pilarna för angränsande kartor.


METAR-TAF: